createdAt,value
2022-07-25T00:01:58.353Z,8.20
2022-07-25T00:04:28.229Z,4.35
2022-07-25T00:06:56.124Z,8.82
2022-07-25T00:09:23.799Z,4.70
2022-07-25T00:11:51.539Z,5.57
2022-07-25T00:14:19.172Z,4.78
2022-07-25T00:16:46.898Z,5.20
2022-07-25T00:19:14.678Z,4.53
2022-07-25T00:21:42.441Z,4.85
2022-07-25T00:24:10.511Z,5.43
2022-07-25T00:26:40.432Z,3.90
2022-07-25T00:29:08.521Z,3.20
2022-07-25T00:31:36.271Z,4.28
2022-07-25T00:34:04.808Z,5.53
2022-07-25T00:36:32.722Z,6.10
2022-07-25T00:39:00.454Z,9.10
2022-07-25T00:41:28.100Z,4.57
2022-07-25T00:43:55.833Z,4.77
2022-07-25T00:46:23.987Z,5.07
2022-07-25T00:48:51.912Z,5.10
2022-07-25T00:51:19.637Z,10.20
2022-07-25T00:53:47.392Z,3.95
2022-07-25T00:56:15.271Z,6.97
2022-07-25T00:58:45.586Z,5.25
2022-07-25T01:01:13.369Z,3.87
2022-07-25T01:03:41.179Z,6.13
2022-07-25T01:06:09.220Z,4.38
2022-07-25T01:08:36.986Z,4.93
2022-07-25T01:11:04.685Z,6.60
2022-07-25T01:13:34.152Z,4.88
2022-07-25T01:16:01.984Z,5.38
2022-07-25T01:18:29.853Z,3.67
2022-07-25T01:20:57.597Z,7.75
2022-07-25T01:23:25.275Z,6.63
2022-07-25T01:25:53.014Z,5.67
2022-07-25T01:28:20.762Z,5.13
2022-07-25T01:30:48.546Z,4.40
2022-07-25T01:33:17.318Z,4.80
2022-07-25T01:35:45.204Z,5.28
2022-07-25T01:38:13.017Z,9.25
2022-07-25T01:40:40.770Z,4.82
2022-07-25T01:43:08.520Z,6.15
2022-07-25T01:45:36.238Z,3.90
2022-07-25T01:48:03.963Z,2.85
2022-07-25T01:50:31.651Z,4.93
2022-07-25T01:52:59.384Z,6.22
2022-07-25T01:55:27.021Z,3.58
2022-07-25T01:57:57.051Z,5.40
2022-07-25T02:00:25.494Z,4.68
2022-07-25T02:03:11.671Z,6.35
2022-07-25T02:05:39.478Z,3.63
2022-07-25T02:08:07.291Z,5.47
2022-07-25T02:10:37.608Z,4.55
2022-07-25T02:13:05.278Z,3.28
2022-07-25T02:15:32.983Z,5.00
2022-07-25T02:18:00.916Z,3.45
2022-07-25T02:20:28.652Z,2.70
2022-07-25T02:22:56.278Z,2.73
2022-07-25T02:25:23.983Z,3.20
2022-07-25T02:27:51.634Z,4.25
2022-07-25T02:30:19.352Z,4.78
2022-07-25T02:32:47.067Z,6.20
2022-07-25T02:35:14.860Z,4.93
2022-07-25T02:37:42.666Z,4.40
2022-07-25T02:40:10.614Z,3.47
2022-07-25T02:42:38.343Z,4.05
2022-07-25T02:45:06.342Z,3.83
2022-07-25T02:47:34.090Z,3.23
2022-07-25T02:50:01.738Z,3.83
2022-07-25T02:52:32.463Z,5.25
2022-07-25T02:55:04.890Z,3.53
2022-07-25T02:57:36.774Z,5.38
2022-07-25T03:00:05.349Z,5.20
2022-07-25T03:02:33.212Z,8.88
2022-07-25T03:05:00.899Z,4.60
2022-07-25T03:07:29.538Z,6.65
2022-07-25T03:09:57.264Z,4.47
2022-07-25T03:12:24.899Z,7.43
2022-07-25T03:14:52.616Z,7.13
2022-07-25T03:17:20.269Z,3.85
2022-07-25T03:19:48.000Z,5.88
2022-07-25T03:22:15.661Z,5.35
2022-07-25T03:24:43.430Z,5.65
2022-07-25T03:27:11.105Z,5.30
2022-07-25T03:29:39.010Z,3.87
2022-07-25T03:32:07.225Z,4.15
2022-07-25T03:34:34.980Z,4.57
2022-07-25T03:37:02.755Z,5.60
2022-07-25T03:39:30.435Z,4.15
2022-07-25T03:41:58.364Z,7.00
2022-07-25T03:44:26.085Z,7.15
2022-07-25T03:46:53.849Z,5.22
2022-07-25T03:49:21.567Z,5.30
2022-07-25T03:51:49.208Z,4.85
2022-07-25T03:54:16.960Z,8.87
2022-07-25T03:56:48.143Z,9.00
2022-07-25T03:59:16.709Z,8.38
2022-07-25T04:01:44.562Z,9.17
2022-07-25T04:04:12.278Z,5.30
2022-07-25T04:06:40.070Z,7.78
2022-07-25T04:09:09.782Z,9.70
2022-07-25T04:11:38.543Z,6.90
2022-07-25T04:14:07.216Z,6.60
2022-07-25T04:16:35.323Z,10.30
2022-07-25T04:19:05.322Z,7.23
2022-07-25T04:21:34.186Z,8.25
2022-07-25T04:24:02.848Z,11.88
2022-07-25T04:26:30.706Z,8.17
2022-07-25T04:28:58.930Z,8.43
2022-07-25T04:31:26.700Z,14.38
2022-07-25T04:33:57.406Z,10.50
2022-07-25T04:36:25.183Z,12.25
2022-07-25T04:38:53.201Z,12.27
2022-07-25T04:41:20.937Z,8.43
2022-07-25T04:43:49.111Z,12.37
2022-07-25T04:46:19.097Z,9.98
2022-07-25T04:48:46.805Z,13.43
2022-07-25T04:51:16.121Z,9.53
2022-07-25T04:53:43.849Z,9.73
2022-07-25T04:56:11.595Z,17.13
2022-07-25T04:58:39.300Z,11.10
2022-07-25T05:01:07.569Z,13.18
2022-07-25T05:03:35.343Z,13.27
2022-07-25T05:06:03.022Z,13.40
2022-07-25T05:08:30.994Z,10.23
2022-07-25T05:10:58.627Z,17.40
2022-07-25T05:13:26.384Z,12.52
2022-07-25T05:15:54.051Z,11.83
2022-07-25T05:18:22.230Z,11.25
2022-07-25T05:20:49.946Z,12.20
2022-07-25T05:23:17.773Z,11.48
2022-07-25T05:25:45.545Z,13.40
2022-07-25T05:28:14.989Z,13.30
2022-07-25T05:30:42.746Z,17.02
2022-07-25T05:33:10.408Z,12.93
2022-07-25T05:35:38.214Z,13.60
2022-07-25T05:38:05.954Z,11.20
2022-07-25T05:40:33.670Z,12.37
2022-07-25T05:43:03.462Z,11.98
2022-07-25T05:45:31.826Z,16.45
2022-07-25T05:47:59.526Z,13.18
2022-07-25T05:50:27.346Z,11.57
2022-07-25T05:52:56.965Z,12.02
2022-07-25T05:55:24.599Z,12.07
2022-07-25T05:57:52.321Z,16.43
2022-07-25T06:00:20.033Z,13.50
2022-07-25T06:02:47.940Z,22.98
2022-07-25T06:05:15.640Z,11.97
2022-07-25T06:07:43.391Z,13.88
2022-07-25T06:10:11.092Z,16.08
2022-07-25T06:12:38.823Z,16.88
2022-07-25T06:15:12.420Z,15.85
2022-07-25T06:17:40.474Z,15.68
2022-07-25T06:20:08.309Z,14.63
2022-07-25T06:22:36.250Z,12.57
2022-07-25T06:25:04.083Z,12.88
2022-07-25T06:27:31.889Z,14.63
2022-07-25T06:29:59.635Z,15.30
2022-07-25T06:32:27.319Z,13.20
2022-07-25T06:34:55.077Z,13.38
2022-07-25T06:37:22.736Z,13.82
2022-07-25T06:39:50.522Z,14.02
2022-07-25T06:42:18.181Z,16.42
2022-07-25T06:44:45.907Z,11.00
2022-07-25T06:47:13.649Z,13.47
2022-07-25T06:49:41.773Z,12.35
2022-07-25T06:52:09.512Z,12.50
2022-07-25T06:54:37.566Z,12.73
2022-07-25T06:57:05.297Z,14.10
2022-07-25T06:59:34.042Z,12.82
2022-07-25T07:02:02.418Z,11.88
2022-07-25T07:04:30.115Z,12.30
2022-07-25T07:06:57.877Z,15.90
2022-07-25T07:09:25.844Z,17.20
2022-07-25T07:11:53.565Z,10.93
2022-07-25T07:14:21.321Z,11.30
2022-07-25T07:16:48.958Z,12.23
2022-07-25T07:19:17.663Z,14.17
2022-07-25T07:21:48.201Z,15.85
2022-07-25T07:24:23.950Z,12.63
2022-07-25T07:26:53.035Z,13.02
2022-07-25T07:29:20.753Z,12.45
2022-07-25T07:31:48.751Z,12.57
2022-07-25T07:34:16.828Z,13.35
2022-07-25T07:36:44.663Z,12.63
2022-07-25T07:39:12.377Z,13.18
2022-07-25T07:41:42.771Z,11.48
2022-07-25T07:44:10.477Z,13.73
2022-07-25T07:46:38.249Z,8.60
2022-07-25T07:49:06.124Z,8.15
2022-07-25T07:51:34.159Z,12.55
2022-07-25T07:54:20.653Z,9.70
2022-07-25T07:56:48.426Z,6.53
2022-07-25T07:59:16.154Z,6.53
2022-07-25T08:01:43.925Z,6.40
2022-07-25T08:04:11.646Z,7.18
2022-07-25T08:06:39.518Z,9.93
2022-07-25T08:09:07.436Z,8.97
2022-07-25T08:11:35.278Z,5.63
2022-07-25T08:14:04.795Z,4.28
2022-07-25T08:16:32.711Z,5.82
2022-07-25T08:19:04.213Z,6.60
2022-07-25T08:21:31.837Z,5.03
2022-07-25T08:24:00.298Z,4.53
2022-07-25T08:26:28.102Z,5.93
2022-07-25T08:29:17.523Z,4.95
2022-07-25T08:31:44.043Z,4.93
2022-07-25T08:34:11.879Z,3.00
2022-07-25T08:36:39.618Z,5.82
2022-07-25T08:39:07.255Z,6.55
2022-07-25T08:41:35.004Z,6.15
2022-07-25T08:44:03.246Z,6.68
2022-07-25T08:46:31.224Z,4.05
2022-07-25T08:48:59.427Z,4.85
2022-07-25T08:51:27.471Z,6.40
2022-07-25T08:53:55.309Z,6.07
2022-07-25T08:56:23.140Z,4.03
2022-07-25T08:58:52.512Z,4.83
2022-07-25T09:01:20.393Z,4.40
2022-07-25T09:03:48.066Z,6.63
2022-07-25T09:06:22.225Z,5.35
2022-07-25T09:08:53.236Z,3.38
2022-07-25T09:11:27.687Z,4.18
2022-07-25T09:13:58.787Z,4.20
2022-07-25T09:16:32.945Z,5.33
2022-07-25T09:19:10.838Z,4.53
2022-07-25T09:21:40.001Z,3.75
2022-07-25T09:24:16.050Z,3.67
2022-07-25T09:26:47.944Z,2.42
2022-07-25T09:29:22.994Z,2.28
2022-07-25T09:31:50.824Z,2.53
2022-07-25T09:34:21.877Z,6.57
2022-07-25T09:36:56.141Z,2.03
2022-07-25T09:39:33.450Z,3.95
2022-07-25T09:42:01.213Z,1.93
2022-07-25T09:44:31.705Z,5.07
2022-07-25T09:46:59.443Z,2.83
2022-07-25T09:49:27.266Z,3.20
2022-07-25T09:51:55.105Z,3.08
2022-07-25T09:54:24.263Z,3.95
2022-07-25T09:56:51.923Z,2.95
2022-07-25T09:59:19.865Z,2.97
2022-07-25T10:01:49.439Z,2.20
2022-07-25T10:04:20.335Z,2.92
2022-07-25T10:06:57.569Z,3.67
2022-07-25T10:09:25.357Z,3.92
2022-07-25T10:12:08.830Z,3.67
2022-07-25T10:14:37.271Z,5.90
2022-07-25T10:17:05.161Z,6.25
2022-07-25T10:19:47.449Z,4.03
2022-07-25T10:22:29.427Z,3.92
2022-07-25T10:25:12.923Z,4.07
2022-07-25T10:27:44.440Z,4.07
2022-07-25T10:30:12.493Z,4.05
2022-07-25T10:32:40.127Z,5.30
2022-07-25T10:35:14.051Z,8.60
2022-07-25T10:37:44.763Z,4.72
2022-07-25T10:40:26.174Z,8.63
2022-07-25T10:43:04.222Z,6.28
2022-07-25T10:45:38.672Z,5.32
2022-07-25T10:48:13.213Z,10.65
2022-07-25T10:50:55.932Z,8.07
2022-07-25T10:53:43.994Z,9.10
2022-07-25T10:56:21.276Z,6.65
2022-07-25T10:58:52.730Z,6.83
2022-07-25T11:01:27.236Z,6.55
2022-07-25T11:03:56.303Z,8.52
2022-07-25T11:06:39.861Z,6.27
2022-07-25T11:09:26.380Z,5.28
2022-07-25T11:11:55.882Z,6.60
2022-07-25T11:14:23.577Z,7.97
2022-07-25T11:16:52.194Z,7.35
2022-07-25T11:19:24.432Z,7.78
2022-07-25T11:21:53.001Z,6.72
2022-07-25T11:24:20.805Z,4.83
2022-07-25T11:26:52.542Z,11.60
2022-07-25T11:29:29.359Z,9.48
2022-07-25T11:31:58.823Z,4.83
2022-07-25T11:34:29.941Z,10.30
2022-07-25T11:36:57.979Z,7.50
2022-07-25T11:39:26.867Z,9.43
2022-07-25T11:42:07.832Z,6.90
2022-07-25T11:44:38.267Z,8.52
2022-07-25T11:47:06.656Z,6.70
2022-07-25T11:49:46.798Z,5.93
2022-07-25T11:52:24.409Z,9.23
2022-07-25T11:54:53.300Z,8.80
2022-07-25T11:57:21.944Z,9.83
2022-07-25T11:59:49.681Z,8.63
2022-07-25T12:02:27.397Z,7.85
2022-07-25T12:04:56.334Z,8.45
2022-07-25T12:07:24.094Z,9.75
2022-07-25T12:09:58.186Z,6.57
2022-07-25T12:12:25.934Z,10.98
2022-07-25T12:14:53.691Z,7.70
2022-07-25T12:17:21.438Z,9.60
2022-07-25T12:19:49.099Z,6.00
2022-07-25T12:22:16.825Z,8.80
2022-07-25T12:24:44.462Z,6.07
2022-07-25T12:27:12.171Z,11.30
2022-07-25T12:29:39.811Z,11.02
2022-07-25T12:32:07.643Z,8.80
2022-07-25T12:34:35.296Z,9.70
2022-07-25T12:37:03.046Z,6.18
2022-07-25T12:39:30.724Z,5.43
2022-07-25T12:41:58.550Z,7.40
2022-07-25T12:44:26.243Z,4.40
2022-07-25T12:46:54.797Z,6.63
2022-07-25T12:49:22.597Z,7.75
2022-07-25T12:51:53.512Z,9.85
2022-07-25T12:54:25.455Z,9.75
2022-07-25T12:56:53.082Z,7.18
2022-07-25T12:59:20.812Z,7.43
2022-07-25T13:01:48.769Z,10.90
2022-07-25T13:04:16.531Z,6.97
2022-07-25T13:06:44.264Z,5.70
2022-07-25T13:09:12.077Z,10.98
2022-07-25T13:11:39.804Z,11.43
2022-07-25T13:14:07.606Z,8.25
2022-07-25T13:16:37.973Z,10.75
2022-07-25T13:19:06.208Z,9.38
2022-07-25T13:21:34.230Z,11.38
2022-07-25T13:24:02.002Z,6.80
2022-07-25T13:26:30.130Z,9.50
2022-07-25T13:29:00.052Z,6.17
2022-07-25T13:31:28.141Z,7.97
2022-07-25T13:33:55.961Z,5.75
2022-07-25T13:36:23.723Z,6.97
2022-07-25T13:38:51.458Z,9.05
2022-07-25T13:41:19.094Z,5.88
2022-07-25T13:43:48.712Z,7.40
2022-07-25T13:46:16.553Z,8.07
2022-07-25T13:48:44.623Z,8.57
2022-07-25T13:51:12.529Z,7.97
2022-07-25T13:53:40.197Z,8.43
2022-07-25T13:56:07.994Z,7.35
2022-07-25T13:58:35.623Z,7.03
2022-07-25T14:01:03.483Z,9.27
2022-07-25T14:03:31.728Z,7.20
2022-07-25T14:05:59.519Z,6.93
2022-07-25T14:08:27.315Z,7.97
2022-07-25T14:10:55.827Z,7.35
2022-07-25T14:13:23.567Z,7.32
2022-07-25T14:15:51.239Z,16.63
2022-07-25T14:18:18.983Z,11.80
2022-07-25T14:20:46.727Z,9.95
2022-07-25T14:23:14.443Z,8.25
2022-07-25T14:25:42.092Z,9.10
2022-07-25T14:28:10.050Z,6.72
2022-07-25T14:30:37.761Z,6.15
2022-07-25T14:33:05.653Z,7.53
2022-07-25T14:35:33.489Z,6.55
2022-07-25T14:38:01.307Z,6.80
2022-07-25T14:40:29.013Z,9.55
2022-07-25T14:42:56.784Z,7.43
2022-07-25T14:45:24.498Z,13.23
2022-07-25T14:47:52.326Z,9.93
2022-07-25T14:50:20.147Z,8.00
2022-07-25T14:52:47.791Z,8.30
2022-07-25T14:55:15.557Z,11.25
2022-07-25T14:57:44.982Z,12.75
2022-07-25T15:00:12.959Z,7.20
2022-07-25T15:02:40.840Z,9.45
2022-07-25T15:05:08.789Z,10.93
2022-07-25T15:07:37.931Z,7.73
2022-07-25T15:10:06.131Z,11.82
2022-07-25T15:12:33.890Z,10.25
2022-07-25T15:15:01.663Z,7.20
2022-07-25T15:17:29.797Z,8.32
2022-07-25T15:19:57.447Z,10.20
2022-07-25T15:22:25.251Z,9.27
2022-07-25T15:27:40.618Z,9.48
2022-07-25T15:30:08.517Z,7.78
2022-07-25T15:32:36.433Z,11.47
2022-07-25T15:35:04.530Z,12.93
2022-07-25T15:37:32.280Z,11.02
2022-07-25T15:40:00.495Z,16.43
2022-07-25T15:42:29.553Z,8.63
2022-07-25T15:45:22.112Z,7.70
2022-07-25T15:47:50.413Z,7.20
2022-07-25T15:50:19.104Z,7.95
2022-07-25T15:52:48.887Z,6.13
2022-07-25T15:55:16.606Z,7.93
2022-07-25T15:57:44.347Z,9.00
2022-07-25T16:00:12.238Z,13.45
2022-07-25T16:02:39.989Z,8.40
2022-07-25T16:05:10.250Z,10.47
2022-07-25T16:07:38.019Z,9.48
2022-07-25T16:10:06.141Z,9.52
2022-07-25T16:12:33.855Z,11.00
2022-07-25T16:15:01.583Z,9.70
2022-07-25T16:17:31.322Z,8.25
2022-07-25T16:19:58.995Z,9.10
2022-07-25T16:22:26.686Z,8.83
2022-07-25T16:24:54.321Z,9.38
2022-07-25T16:27:22.302Z,9.60
2022-07-25T16:29:49.978Z,7.20
2022-07-25T16:32:19.007Z,10.43
2022-07-25T16:34:47.414Z,9.90
2022-07-25T16:37:15.535Z,6.60
2022-07-25T16:39:43.255Z,13.40
2022-07-25T16:42:10.913Z,10.48
2022-07-25T16:44:38.930Z,8.43
2022-07-25T16:47:07.748Z,6.10
2022-07-25T16:49:35.518Z,4.43
2022-07-25T16:52:03.229Z,6.65
2022-07-25T16:54:31.414Z,5.07
2022-07-25T16:56:59.848Z,9.38
2022-07-25T16:59:27.858Z,7.93
2022-07-25T17:01:55.614Z,8.38
2022-07-25T17:04:23.353Z,6.82
2022-07-25T17:06:51.178Z,10.27
2022-07-25T17:09:18.858Z,15.60
2022-07-25T17:11:46.592Z,5.27
2022-07-25T17:14:14.304Z,8.98
2022-07-25T17:16:43.006Z,11.60
2022-07-25T17:19:10.969Z,8.77
2022-07-25T17:21:38.924Z,8.38
2022-07-25T17:24:06.866Z,8.73
2022-07-25T17:26:34.682Z,9.38
2022-07-25T17:29:02.914Z,10.48
2022-07-25T17:31:30.806Z,11.05
2022-07-25T17:33:58.615Z,9.40
2022-07-25T17:36:26.248Z,10.93
2022-07-25T17:38:54.023Z,7.43
2022-07-25T17:41:21.719Z,7.97
2022-07-25T17:43:49.858Z,13.10
2022-07-25T17:46:17.623Z,6.82
2022-07-25T17:48:46.798Z,11.65
2022-07-25T17:51:14.647Z,13.38
2022-07-25T17:53:42.560Z,12.70
2022-07-25T17:56:10.291Z,11.85
2022-07-25T17:58:39.013Z,11.68
2022-07-25T18:01:10.256Z,12.93
2022-07-25T18:03:38.694Z,9.90
2022-07-25T18:06:06.593Z,13.80
2022-07-25T18:08:36.028Z,9.03
2022-07-25T18:11:03.993Z,10.73
2022-07-25T18:13:31.762Z,10.95
2022-07-25T18:15:59.659Z,12.75
2022-07-25T18:18:29.555Z,12.43
2022-07-25T18:20:57.338Z,10.95
2022-07-25T18:23:27.482Z,13.80
2022-07-25T18:25:55.518Z,13.23
2022-07-25T18:28:25.068Z,14.98
2022-07-25T18:30:53.033Z,14.18
2022-07-25T18:33:24.022Z,9.23
2022-07-25T18:35:51.806Z,9.73
2022-07-25T18:38:23.349Z,10.65
2022-07-25T18:41:06.579Z,9.93
2022-07-25T18:43:40.966Z,11.35
2022-07-25T18:46:09.388Z,11.68
2022-07-25T18:48:39.979Z,14.30
2022-07-25T18:51:07.658Z,10.83
2022-07-25T18:53:35.534Z,14.65
2022-07-25T18:56:03.361Z,14.27
2022-07-25T18:58:31.080Z,14.90
2022-07-25T19:00:59.482Z,16.35
2022-07-25T19:03:27.759Z,13.52
2022-07-25T19:06:01.213Z,14.45
2022-07-25T19:08:31.522Z,16.75
2022-07-25T19:10:59.709Z,15.10
2022-07-25T19:13:48.359Z,12.15
2022-07-25T19:16:15.170Z,16.60
2022-07-25T19:18:44.538Z,16.63
2022-07-25T19:21:12.510Z,12.15
2022-07-25T19:23:40.332Z,14.00
2022-07-25T19:26:10.456Z,17.45
2022-07-25T19:28:38.810Z,14.50
2022-07-25T19:31:09.611Z,19.65
2022-07-25T19:33:37.490Z,18.90
2022-07-25T19:36:07.876Z,13.25
2022-07-25T19:38:38.895Z,14.57
2022-07-25T19:41:06.734Z,12.83
2022-07-25T19:43:34.487Z,13.32
2022-07-25T19:46:02.275Z,17.85
2022-07-25T19:48:30.135Z,14.13
2022-07-25T19:51:01.069Z,8.40
2022-07-25T19:53:30.621Z,13.32
2022-07-25T19:55:58.374Z,19.60
2022-07-25T19:58:26.050Z,17.25
2022-07-25T20:00:53.785Z,19.83
2022-07-25T20:03:23.132Z,16.08
2022-07-25T20:05:52.263Z,19.07
2022-07-25T20:08:20.937Z,16.55
2022-07-25T20:10:48.719Z,18.00
2022-07-25T20:13:16.538Z,17.70
2022-07-25T20:15:44.313Z,9.23
2022-07-25T20:18:16.055Z,17.13
2022-07-25T20:20:46.981Z,15.10
2022-07-25T20:23:14.657Z,10.32
2022-07-25T20:25:42.398Z,13.93
2022-07-25T20:28:10.228Z,14.18
2022-07-25T20:30:38.023Z,20.77
2022-07-25T20:33:09.383Z,17.23
2022-07-25T20:35:37.886Z,17.38
2022-07-25T20:38:09.823Z,14.20
2022-07-25T20:40:43.912Z,11.35
2022-07-25T20:43:15.988Z,20.35
2022-07-25T20:45:43.904Z,19.92
2022-07-25T20:48:11.695Z,12.95
2022-07-25T20:50:39.492Z,18.50
2022-07-25T20:53:07.303Z,18.35
2022-07-25T20:55:35.042Z,16.30
2022-07-25T20:58:02.746Z,14.93
2022-07-25T21:00:30.867Z,15.50
2022-07-25T21:02:58.586Z,12.47
2022-07-25T21:05:26.466Z,14.50
2022-07-25T21:07:54.233Z,15.93
2022-07-25T21:10:21.901Z,12.82
2022-07-25T21:12:51.008Z,16.25
2022-07-25T21:15:18.826Z,15.88
2022-07-25T21:17:46.587Z,13.82
2022-07-25T21:20:14.470Z,12.37
2022-07-25T21:22:42.370Z,18.50
2022-07-25T21:25:10.804Z,15.45
2022-07-25T21:27:38.557Z,11.33
2022-07-25T21:30:06.881Z,21.25
2022-07-25T21:32:34.560Z,13.10
2022-07-25T21:35:02.337Z,13.48
2022-07-25T21:37:29.983Z,13.18
2022-07-25T21:39:57.821Z,10.15
2022-07-25T21:42:25.487Z,13.70
2022-07-25T21:44:53.214Z,10.77
2022-07-25T21:47:20.843Z,14.90
2022-07-25T21:50:07.325Z,18.25
2022-07-25T21:52:35.351Z,15.80
2022-07-25T21:55:04.215Z,18.55
2022-07-25T21:57:32.161Z,14.13
2022-07-25T21:59:59.878Z,17.58
2022-07-25T22:02:27.574Z,22.17
2022-07-25T22:04:55.344Z,12.05
2022-07-25T22:07:23.141Z,12.98
2022-07-25T22:09:51.027Z,19.93
2022-07-25T22:12:18.748Z,13.23
2022-07-25T22:14:46.401Z,12.10
2022-07-25T22:17:14.138Z,17.07
2022-07-25T22:19:41.794Z,15.10
2022-07-25T22:22:09.513Z,16.45
2022-07-25T22:24:37.371Z,15.00
2022-07-25T22:27:05.156Z,18.02
2022-07-25T22:29:32.870Z,13.27
2022-07-25T22:32:00.951Z,18.95
2022-07-25T22:34:29.147Z,11.40
2022-07-25T22:36:57.063Z,12.68
2022-07-25T22:39:25.039Z,17.75
2022-07-25T22:41:52.703Z,13.03
2022-07-25T22:44:20.446Z,12.35
2022-07-25T22:46:48.120Z,16.55
2022-07-25T22:49:15.954Z,15.55
2022-07-25T22:51:43.723Z,10.80
2022-07-25T22:54:11.439Z,11.93
2022-07-25T22:56:39.182Z,18.25
2022-07-25T22:59:07.096Z,18.53
2022-07-25T23:01:35.089Z,14.25
2022-07-25T23:04:02.906Z,11.73
2022-07-25T23:06:30.701Z,14.10
2022-07-25T23:08:58.420Z,17.75
2022-07-25T23:11:27.431Z,13.85
2022-07-25T23:13:55.162Z,16.15
2022-07-25T23:16:22.974Z,15.43
2022-07-25T23:18:50.683Z,16.13
2022-07-25T23:21:18.461Z,13.07
2022-07-25T23:23:46.155Z,15.03
2022-07-25T23:26:14.086Z,16.20
2022-07-25T23:28:41.854Z,17.33
2022-07-25T23:31:09.862Z,20.70
2022-07-25T23:33:37.648Z,17.90
2022-07-25T23:36:05.645Z,15.98
2022-07-25T23:38:33.500Z,16.58
2022-07-25T23:41:01.244Z,20.20
2022-07-25T23:43:57.149Z,13.07
2022-07-25T23:46:16.740Z,11.60
2022-07-25T23:48:46.178Z,20.77
2022-07-25T23:51:14.513Z,14.63
2022-07-25T23:53:42.270Z,15.02
2022-07-25T23:56:10.063Z,16.27
2022-07-25T23:58:37.892Z,11.70
